메인 페이지
METAR-TAF:

METAR-TAF

공항 :

새스커툰, 서스캐처원, 캐나다

위도: 52-10N, 경도: 106-41W, 고도: 501m

현재 날씨관측

예보는 32분 전, 07:00시(UTC)에 발표되었습니다.
서북서9kt
온도 -2°C
습도 54%
기압 1015 hPa
시정: 24.1km
고도 10000ft 상공 구름 조금
고도 30000ft 상공 구름 보통

METAR: CYXE 210700Z 29009KT 15SM FEW100 SCT300 M02/M10 A2998 RMK AC1CI2 SLP172

시각: 01:32 (07:32 UTC)

예보

예보는 1 시간 52분 전, 05:40시(UTC)에 발표되었습니다.
예보 대상 시간: 21일 06시부터 22일 06시까지 (UTC)
8kt
시정: 10km
고도 30000ft 상공 구름 보통
21일 1700시부터 (UTC)
서북서12kt
시정: 10km
맑음
전환 중
21일 18시부터 21일 20시까지 (UTC)
서북서15kt, 순간 최대 풍속 25kt
고도 8000ft 상공 구름 조금
21일 2300시부터 (UTC)
북서15kt
시정: 10km
고도 9000ft 상공 구름 보통
전환 중
22일 01시부터 22일 03시까지 (UTC)
북북서5kt

TAF: CYXE 210540Z 2106/2206 27008KT P6SM SCT300 FM211700 30012KT P6SM SKC BECMG 2118/2120 30015G25KT FEW080 FM212300 32015KT P6SM SCT090 BECMG 2201/2203 34005KT RMK NXT FCST BY 211200Z

4,000개 이상의 공항 관측 자료 및 예보 (METAR 및 TAF 보고).

지도상에서 검색 가능한 기상관측소가 노란 점과 빨간 점으로 표시되어 있습니다.

기상관측소 명을 보려면 표시 위로 마우스를 이동하세요.

날씨 관측과 예보를 보려면 클릭하세요.

지도 변경 : 확대하려면 엑스 표시가 있는 녹색 버튼, 축소하려면 빼기 표시가 있는 녹색 버튼, 다음 페이지의 지도를 보려면 녹색 화살표를 클릭하세요.


METAR-TAF: